createdAt,value
2022-08-05T00:00:17.302Z,1.00
2022-08-05T00:02:50.953Z,1.40
2022-08-05T00:06:01.922Z,0.90
2022-08-05T00:08:35.215Z,1.42
2022-08-05T00:11:00.426Z,1.42
2022-08-05T00:13:38.285Z,1.00
2022-08-05T00:16:12.203Z,1.20
2022-08-05T00:18:42.193Z,1.17
2022-08-05T00:21:09.659Z,0.90
2022-08-05T00:23:46.028Z,0.93
2022-08-05T00:26:20.814Z,1.58
2022-08-05T00:28:49.495Z,1.20
2022-08-05T00:31:16.751Z,1.25
2022-08-05T00:34:56.057Z,0.73
2022-08-05T00:37:12.424Z,1.25
2022-08-05T00:39:41.486Z,1.20
2022-08-05T00:42:11.548Z,0.88
2022-08-05T00:44:58.511Z,1.10
2022-08-05T00:47:26.615Z,0.70
2022-08-05T00:50:13.565Z,0.75
2022-08-05T00:52:40.377Z,1.27
2022-08-05T00:55:07.471Z,1.00
2022-08-05T00:57:55.303Z,0.90
2022-08-05T01:00:22.031Z,1.13
2022-08-05T01:02:53.125Z,1.58
2022-08-05T01:05:20.138Z,0.88
2022-08-05T01:08:40.188Z,1.10
2022-08-05T01:10:56.344Z,1.10
2022-08-05T01:13:58.403Z,0.77
2022-08-05T01:16:39.307Z,1.50
2022-08-05T01:19:18.311Z,1.50
2022-08-05T01:21:58.395Z,0.80
2022-08-05T01:24:58.035Z,1.17
2022-08-05T01:27:55.135Z,0.77
2022-08-05T01:30:34.216Z,1.17
2022-08-05T01:33:06.132Z,1.13
2022-08-05T01:35:51.920Z,0.90
2022-08-05T01:38:27.091Z,1.15
2022-08-05T01:40:56.280Z,1.27
2022-08-05T01:43:24.742Z,1.20
2022-08-05T01:45:56.721Z,1.20
2022-08-05T01:48:26.312Z,1.13
2022-08-05T01:50:55.584Z,1.23
2022-08-05T01:53:57.433Z,1.20
2022-08-05T01:56:11.723Z,1.17
2022-08-05T01:58:40.989Z,0.55
2022-08-05T02:01:24.659Z,1.02
2022-08-05T02:03:53.700Z,1.20
2022-08-05T02:06:37.808Z,1.13
2022-08-05T02:09:06.379Z,1.00
2022-08-05T02:11:42.288Z,0.60
2022-08-05T02:14:18.775Z,0.93
2022-08-05T02:16:52.842Z,0.93
2022-08-05T02:19:46.911Z,0.93
2022-08-05T02:22:27.386Z,0.80
2022-08-05T02:25:02.119Z,1.00
2022-08-05T02:27:59.289Z,1.17
2022-08-05T02:30:22.190Z,0.60
2022-08-05T02:32:51.900Z,0.93
2022-08-05T02:35:27.655Z,0.88
2022-08-05T02:37:55.803Z,0.80
2022-08-05T02:40:26.194Z,0.85
2022-08-05T02:42:55.345Z,1.05
2022-08-05T02:45:24.484Z,0.60
2022-08-05T02:48:06.337Z,1.83
2022-08-05T02:50:39.031Z,0.70
2022-08-05T02:53:12.046Z,1.33
2022-08-05T02:55:53.730Z,0.70
2022-08-05T02:58:23.192Z,0.75
2022-08-05T03:00:56.167Z,1.13
2022-08-05T03:03:23.419Z,0.90
2022-08-05T03:06:54.059Z,0.57
2022-08-05T03:08:42.338Z,0.93
2022-08-05T03:11:55.382Z,0.95
2022-08-05T03:14:13.295Z,0.60
2022-08-05T03:16:41.071Z,0.98
2022-08-05T03:19:16.884Z,0.90
2022-08-05T03:21:48.718Z,1.08
2022-08-05T03:24:29.419Z,1.00
2022-08-05T03:27:01.243Z,1.05
2022-08-05T03:29:45.392Z,1.08
2022-08-05T03:32:16.501Z,0.80
2022-08-05T03:34:50.697Z,1.08
2022-08-05T03:37:19.724Z,1.00
2022-08-05T03:39:59.219Z,0.70
2022-08-05T03:42:29.224Z,0.80
2022-08-05T03:44:58.882Z,1.05
2022-08-05T03:47:35.212Z,0.77
2022-08-05T03:50:02.554Z,1.02
2022-08-05T03:52:50.074Z,1.00
2022-08-05T03:56:05.885Z,0.80
2022-08-05T03:58:16.854Z,1.20
2022-08-05T04:00:46.463Z,1.10
2022-08-05T04:03:28.864Z,0.93
2022-08-05T04:05:57.645Z,0.75
2022-08-05T04:08:30.253Z,1.40
2022-08-05T04:11:04.796Z,0.60
2022-08-05T04:13:50.268Z,0.82
2022-08-05T04:16:24.223Z,1.10
2022-08-05T04:19:00.066Z,1.13
2022-08-05T04:22:08.318Z,1.00
2022-08-05T04:24:19.355Z,0.95
2022-08-05T04:26:50.251Z,1.27
2022-08-05T04:29:17.124Z,0.70
2022-08-05T04:31:43.943Z,0.85
2022-08-05T04:34:31.830Z,0.98
2022-08-05T04:37:00.116Z,1.40
2022-08-05T04:39:27.882Z,1.20
2022-08-05T04:41:55.446Z,0.88
2022-08-05T04:44:29.455Z,1.20
2022-08-05T04:47:09.628Z,0.90
2022-08-05T04:50:01.495Z,1.30
2022-08-05T04:52:28.261Z,1.30
2022-08-05T04:54:57.094Z,1.02
2022-08-05T04:57:29.271Z,0.82
2022-08-05T04:59:58.615Z,1.10
2022-08-05T05:02:41.291Z,1.20
2022-08-05T05:05:26.209Z,1.17
2022-08-05T05:08:01.794Z,1.50
2022-08-05T05:10:33.859Z,1.30
2022-08-05T05:13:03.767Z,1.77
2022-08-05T05:15:56.739Z,1.52
2022-08-05T05:18:28.694Z,1.30
2022-08-05T05:21:00.095Z,1.70
2022-08-05T05:23:27.240Z,1.38
2022-08-05T05:26:14.141Z,1.25
2022-08-05T05:28:44.741Z,1.50
2022-08-05T05:31:12.396Z,1.80
2022-08-05T05:33:58.748Z,1.45
2022-08-05T05:36:28.536Z,1.67
2022-08-05T05:38:57.309Z,1.70
2022-08-05T05:41:24.625Z,1.52
2022-08-05T05:43:58.493Z,1.42
2022-08-05T05:46:27.618Z,1.40
2022-08-05T05:48:54.460Z,1.48
2022-08-05T05:51:27.904Z,1.70
2022-08-05T05:53:59.495Z,1.48
2022-08-05T05:56:31.555Z,1.70
2022-08-05T05:59:03.444Z,1.08
2022-08-05T06:01:38.197Z,1.50
2022-08-05T06:04:13.180Z,1.45
2022-08-05T06:06:43.095Z,1.30
2022-08-05T06:09:17.300Z,1.30
2022-08-05T06:12:01.160Z,1.50
2022-08-05T06:14:34.628Z,2.20
2022-08-05T06:17:22.063Z,1.13
2022-08-05T06:19:56.567Z,1.65
2022-08-05T06:22:34.804Z,1.30
2022-08-05T06:25:59.251Z,0.88
2022-08-05T06:28:10.965Z,1.00
2022-08-05T06:30:39.257Z,1.20
2022-08-05T06:33:09.927Z,1.38
2022-08-05T06:36:07.137Z,1.65
2022-08-05T06:38:35.821Z,1.17
2022-08-05T06:41:05.062Z,1.67
2022-08-05T06:43:57.661Z,1.50
2022-08-05T06:46:19.328Z,1.92
2022-08-05T06:48:53.685Z,1.60
2022-08-05T06:51:30.217Z,2.80
2022-08-05T06:54:02.349Z,2.13
2022-08-05T06:56:30.416Z,1.88
2022-08-05T06:59:01.818Z,2.55
2022-08-05T07:01:32.588Z,2.35
2022-08-05T07:06:30.483Z,2.83
2022-08-05T07:08:59.246Z,2.33
2022-08-05T07:11:28.728Z,3.45
2022-08-05T07:14:20.220Z,2.60
2022-08-05T07:18:01.399Z,2.53
2022-08-05T07:22:29.134Z,2.60
2022-08-05T07:25:22.444Z,3.60
2022-08-05T07:27:58.398Z,3.53
2022-08-05T07:30:34.481Z,3.15
2022-08-05T07:33:09.206Z,3.05
2022-08-05T07:35:56.817Z,3.50
2022-08-05T07:38:33.210Z,2.92
2022-08-05T07:42:06.799Z,3.75
2022-08-05T07:43:53.258Z,3.58
2022-08-05T07:46:25.319Z,2.60
2022-08-05T07:49:02.068Z,3.25
2022-08-05T07:51:37.215Z,4.03
2022-08-05T07:54:09.705Z,3.58
2022-08-05T07:57:00.412Z,3.50
2022-08-05T07:59:38.027Z,5.30
2022-08-05T08:02:15.916Z,4.15
2022-08-05T08:04:46.571Z,4.90
2022-08-05T08:07:14.046Z,4.80
2022-08-05T08:09:42.164Z,4.75
2022-08-05T08:12:19.943Z,6.38
2022-08-05T08:14:56.089Z,6.05
2022-08-05T08:17:23.702Z,4.85
2022-08-05T08:20:21.751Z,5.07
2022-08-05T08:22:41.617Z,4.72
2022-08-05T08:25:15.768Z,4.43
2022-08-05T08:27:47.412Z,5.15
2022-08-05T08:33:04.686Z,3.83
2022-08-05T08:35:41.027Z,4.38
2022-08-05T08:38:11.850Z,4.60
2022-08-05T08:40:47.788Z,4.63
2022-08-05T08:44:56.398Z,4.82
2022-08-05T08:46:06.729Z,4.40
2022-08-05T08:48:59.374Z,4.30
2022-08-05T08:52:03.820Z,4.78
2022-08-05T08:54:13.755Z,4.25
2022-08-05T08:56:47.738Z,3.97
2022-08-05T08:59:20.779Z,5.30
2022-08-05T09:01:57.350Z,3.90
2022-08-05T09:04:30.327Z,4.22
2022-08-05T09:06:58.639Z,4.07
2022-08-05T09:09:34.845Z,4.22
2022-08-05T09:12:20.039Z,4.35
2022-08-05T09:14:59.377Z,5.53
2022-08-05T09:17:42.256Z,5.43
2022-08-05T09:20:11.598Z,5.25
2022-08-05T09:23:18.734Z,4.40
2022-08-05T09:26:02.843Z,5.30
2022-08-05T09:28:33.418Z,4.22
2022-08-05T09:31:23.542Z,5.07
2022-08-05T09:34:07.808Z,4.30
2022-08-05T09:36:54.115Z,6.25
2022-08-05T09:39:27.778Z,5.18
2022-08-05T09:42:13.625Z,5.25
2022-08-05T09:44:56.401Z,4.63
2022-08-05T09:47:26.265Z,4.07
2022-08-05T09:50:02.536Z,6.25
2022-08-05T09:52:32.075Z,5.25
2022-08-05T09:55:06.454Z,5.38
2022-08-05T09:57:48.706Z,5.93
2022-08-05T10:00:21.252Z,5.80
2022-08-05T10:02:58.469Z,5.18
2022-08-05T10:05:27.998Z,4.47
2022-08-05T10:08:34.917Z,4.63
2022-08-05T10:10:44.181Z,4.63
2022-08-05T10:13:11.533Z,5.82
2022-08-05T10:15:41.827Z,6.53
2022-08-05T10:18:12.398Z,5.68
2022-08-05T10:20:44.101Z,6.45
2022-08-05T10:23:34.617Z,5.22
2022-08-05T10:26:08.089Z,6.90
2022-08-05T10:28:44.056Z,6.38
2022-08-05T10:32:47.307Z,6.10
2022-08-05T10:34:01.305Z,6.15
2022-08-05T10:36:28.507Z,7.43
2022-08-05T10:39:01.260Z,5.78
2022-08-05T10:41:47.374Z,6.50
2022-08-05T10:44:17.934Z,5.80
2022-08-05T10:46:54.084Z,5.47
2022-08-05T10:49:27.188Z,5.45
2022-08-05T10:52:02.725Z,5.38
2022-08-05T10:55:02.350Z,6.90
2022-08-05T10:57:31.916Z,7.00
2022-08-05T11:00:22.864Z,7.30
2022-08-05T11:03:24.452Z,5.78
2022-08-05T11:06:08.402Z,5.70
2022-08-05T11:09:24.417Z,5.95
2022-08-05T11:12:07.289Z,7.32
2022-08-05T11:15:01.040Z,6.72
2022-08-05T11:17:59.624Z,6.25
2022-08-05T11:20:44.016Z,6.72
2022-08-05T11:23:33.626Z,7.47
2022-08-05T11:26:11.642Z,5.95
2022-08-05T11:28:43.243Z,5.43
2022-08-05T11:31:10.330Z,6.20
2022-08-05T11:33:51.748Z,7.22
2022-08-05T11:36:42.821Z,6.20
2022-08-05T11:39:12.147Z,6.70
2022-08-05T11:42:01.508Z,6.53
2022-08-05T11:44:53.274Z,7.30
2022-08-05T11:47:48.235Z,7.03
2022-08-05T11:50:10.371Z,6.97
2022-08-05T11:55:11.470Z,5.90
2022-08-05T11:58:09.388Z,6.57
2022-08-05T12:00:38.372Z,8.02
2022-08-05T12:03:16.738Z,8.52
2022-08-05T12:06:03.142Z,9.55
2022-08-05T12:08:33.369Z,7.43
2022-08-05T12:11:05.435Z,7.63
2022-08-05T12:13:49.631Z,7.07
2022-08-05T12:16:20.368Z,7.03
2022-08-05T12:18:55.142Z,7.20
2022-08-05T12:21:30.052Z,6.70
2022-08-05T12:24:10.884Z,7.10
2022-08-05T12:29:22.736Z,6.93
2022-08-05T12:32:02.220Z,5.93
2022-08-05T12:34:35.773Z,5.95
2022-08-05T12:37:10.806Z,5.82
2022-08-05T12:39:45.141Z,4.82
2022-08-05T12:42:19.685Z,5.13
2022-08-05T12:44:47.602Z,6.22
2022-08-05T12:47:31.924Z,5.28
2022-08-05T12:50:02.086Z,5.35
2022-08-05T12:52:39.487Z,5.38
2022-08-05T12:55:25.514Z,5.13
2022-08-05T12:58:49.054Z,5.85
2022-08-05T13:02:00.872Z,5.63
2022-08-05T13:03:39.096Z,5.75
2022-08-05T13:06:11.650Z,5.43
2022-08-05T13:08:38.904Z,4.75
2022-08-05T13:11:07.915Z,3.70
2022-08-05T13:14:05.103Z,3.60
2022-08-05T13:16:27.987Z,5.68
2022-08-05T13:18:57.968Z,3.45
2022-08-05T13:21:28.135Z,3.55
2022-08-05T13:24:04.936Z,3.75
2022-08-05T13:26:31.742Z,2.80
2022-08-05T13:28:59.188Z,2.10
2022-08-05T13:32:02.933Z,1.75
2022-08-05T13:34:21.944Z,1.50
2022-08-05T13:36:53.219Z,1.27
2022-08-05T13:40:14.631Z,1.40
2022-08-05T13:42:07.690Z,1.60
2022-08-05T13:44:45.428Z,1.60
2022-08-05T13:47:34.657Z,1.67
2022-08-05T13:50:04.252Z,1.50
2022-08-05T13:52:32.294Z,1.20
2022-08-05T13:55:07.932Z,1.00
2022-08-05T13:57:50.702Z,1.30
2022-08-05T14:00:30.646Z,1.30
2022-08-05T14:02:57.782Z,0.98
2022-08-05T14:05:47.929Z,1.00
2022-08-05T14:08:21.352Z,1.10
2022-08-05T14:11:03.362Z,0.90
2022-08-05T14:13:42.418Z,1.20
2022-08-05T14:16:11.473Z,0.98
2022-08-05T14:18:38.699Z,0.95
2022-08-05T14:22:08.794Z,1.23
2022-08-05T14:23:53.700Z,0.90
2022-08-05T14:26:35.673Z,0.80
2022-08-05T14:29:06.476Z,0.93
2022-08-05T14:32:03.026Z,1.10
2022-08-05T14:34:35.135Z,0.80
2022-08-05T14:37:04.497Z,0.88
2022-08-05T14:39:49.474Z,1.08
2022-08-05T14:42:21.388Z,1.20
2022-08-05T14:44:56.561Z,1.40
2022-08-05T14:48:04.006Z,1.00
2022-08-05T14:50:17.849Z,1.15
2022-08-05T14:52:52.954Z,1.00
2022-08-05T14:55:20.282Z,1.20
2022-08-05T14:57:54.201Z,1.33
2022-08-05T15:00:27.864Z,0.85
2022-08-05T15:02:55.617Z,1.35
2022-08-05T15:05:29.828Z,1.00
2022-08-05T15:08:08.546Z,1.20
2022-08-05T15:10:41.554Z,1.35
2022-08-05T15:13:10.079Z,1.40
2022-08-05T15:15:54.314Z,1.33
2022-08-05T15:18:23.691Z,1.23
2022-08-05T15:20:50.943Z,0.95
2022-08-05T15:23:18.293Z,0.63
2022-08-05T15:25:51.996Z,0.80
2022-08-05T15:28:27.017Z,0.95
2022-08-05T15:30:55.113Z,0.73
2022-08-05T15:34:05.014Z,0.60
2022-08-05T15:36:17.357Z,0.55
2022-08-05T15:40:41.369Z,0.47
2022-08-05T15:41:55.939Z,0.80
2022-08-05T15:44:24.153Z,0.40
2022-08-05T15:46:52.667Z,0.40
2022-08-05T15:49:27.441Z,0.77
2022-08-05T15:52:16.909Z,0.70
2022-08-05T15:54:53.685Z,0.70
2022-08-05T15:57:23.612Z,0.88
2022-08-05T15:59:54.034Z,0.70
2022-08-05T16:02:25.505Z,0.80
2022-08-05T16:04:55.371Z,0.70
2022-08-05T16:07:22.898Z,0.80
2022-08-05T16:09:50.183Z,1.15
2022-08-05T16:12:17.594Z,0.80
2022-08-05T16:14:46.934Z,0.60
2022-08-05T16:17:13.833Z,0.85
2022-08-05T16:20:03.640Z,0.98
2022-08-05T16:22:34.025Z,0.93
2022-08-05T16:25:05.441Z,0.70
2022-08-05T16:27:59.740Z,1.10
2022-08-05T16:30:26.141Z,0.50
2022-08-05T16:32:54.103Z,0.90
2022-08-05T16:35:27.877Z,0.80
2022-08-05T16:38:15.304Z,1.15
2022-08-05T16:40:51.894Z,1.30
2022-08-05T16:43:24.134Z,1.20
2022-08-05T16:46:04.636Z,1.50
2022-08-05T16:48:35.955Z,1.50
2022-08-05T16:51:08.654Z,1.48
2022-08-05T16:54:02.865Z,0.95
2022-08-05T16:56:24.154Z,1.83
2022-08-05T16:58:51.390Z,1.63
2022-08-05T17:01:19.144Z,2.05
2022-08-05T17:03:46.539Z,1.30
2022-08-05T17:06:16.627Z,1.35
2022-08-05T17:08:52.763Z,1.20
2022-08-05T17:11:25.515Z,1.52
2022-08-05T17:14:00.550Z,1.10
2022-08-05T17:16:37.987Z,1.42
2022-08-05T17:19:07.517Z,1.80
2022-08-05T17:21:37.316Z,1.98
2022-08-05T17:24:14.395Z,1.50
2022-08-05T17:26:53.706Z,2.15
2022-08-05T17:29:39.804Z,1.60
2022-08-05T17:32:26.123Z,1.88
2022-08-05T17:34:53.082Z,2.42
2022-08-05T17:37:40.648Z,1.77
2022-08-05T17:40:10.148Z,1.80
2022-08-05T17:42:41.436Z,1.50
2022-08-05T17:45:20.694Z,1.90
2022-08-05T17:47:54.891Z,1.63
2022-08-05T17:50:29.517Z,1.75
2022-08-05T17:52:59.586Z,1.60
2022-08-05T17:55:34.713Z,1.63
2022-08-05T17:58:10.837Z,1.23
2022-08-05T18:00:44.971Z,2.03
2022-08-05T18:03:27.988Z,1.65
2022-08-05T18:06:04.901Z,1.52
2022-08-05T18:08:33.725Z,1.83
2022-08-05T18:11:01.165Z,2.05
2022-08-05T18:13:36.854Z,1.60
2022-08-05T18:16:13.705Z,1.70
2022-08-05T18:18:41.249Z,2.40
2022-08-05T18:21:13.386Z,2.00
2022-08-05T18:23:47.337Z,1.67
2022-08-05T18:26:14.698Z,1.75
2022-08-05T18:28:46.359Z,1.33
2022-08-05T18:31:13.432Z,1.50
2022-08-05T18:33:47.113Z,1.10
2022-08-05T18:36:17.366Z,1.15
2022-08-05T18:38:46.226Z,1.27
2022-08-05T18:41:55.880Z,1.52
2022-08-05T18:44:06.276Z,1.48
2022-08-05T18:46:34.606Z,1.35
2022-08-05T18:49:21.283Z,1.42
2022-08-05T18:52:08.835Z,1.00
2022-08-05T18:54:36.022Z,1.20
2022-08-05T18:57:09.658Z,0.90
2022-08-05T19:00:01.452Z,2.00
2022-08-05T19:02:29.605Z,3.30
2022-08-05T19:05:02.981Z,2.95
2022-08-05T19:07:50.127Z,2.50
2022-08-05T19:10:28.162Z,1.60
2022-08-05T19:12:58.765Z,1.10
2022-08-05T19:15:59.815Z,0.90
2022-08-05T19:18:21.886Z,0.77
2022-08-05T19:20:54.011Z,0.60
2022-08-05T19:24:03.604Z,0.80
2022-08-05T19:26:09.304Z,0.98
2022-08-05T19:28:42.070Z,0.60
2022-08-05T19:36:16.993Z,0.60
2022-08-05T19:38:45.539Z,0.35
2022-08-05T19:41:12.775Z,0.57
2022-08-05T19:44:06.283Z,0.55
2022-08-05T19:46:30.268Z,0.60
2022-08-05T19:49:01.133Z,0.50
2022-08-05T19:52:08.536Z,0.85
2022-08-05T19:54:25.474Z,0.90
2022-08-05T19:56:58.830Z,3.10
2022-08-05T19:59:54.000Z,1.63
2022-08-05T20:02:14.883Z,5.43
2022-08-05T20:04:45.839Z,2.47
2022-08-05T20:07:14.159Z,1.77
2022-08-05T20:09:55.000Z,1.10
2022-08-05T20:12:25.344Z,0.95
2022-08-05T20:14:53.245Z,0.82
2022-08-05T20:17:23.533Z,0.93
2022-08-05T20:19:56.743Z,0.90
2022-08-05T20:22:26.790Z,0.60
2022-08-05T20:24:55.489Z,1.00
2022-08-05T20:27:26.939Z,0.70
2022-08-05T20:29:58.959Z,0.60
2022-08-05T20:32:27.146Z,0.70
2022-08-05T20:34:54.866Z,1.30
2022-08-05T20:38:04.732Z,0.85
2022-08-05T20:40:10.013Z,1.35
2022-08-05T20:42:36.933Z,0.90
2022-08-05T20:45:05.249Z,0.77
2022-08-05T20:47:32.853Z,0.85
2022-08-05T20:50:02.266Z,1.02
2022-08-05T20:52:30.017Z,0.70
2022-08-05T20:55:15.935Z,0.60
2022-08-05T20:57:45.097Z,1.00
2022-08-05T21:00:40.709Z,1.73
2022-08-05T21:03:06.360Z,0.90
2022-08-05T21:05:47.665Z,0.65
2022-08-05T21:08:28.106Z,0.77
2022-08-05T21:11:11.629Z,0.80
2022-08-05T21:13:55.758Z,1.00
2022-08-05T21:16:29.938Z,0.93
2022-08-05T21:19:00.332Z,0.73
2022-08-05T21:21:39.231Z,1.05
2022-08-05T21:24:13.134Z,0.75
2022-08-05T21:26:41.391Z,0.90
2022-08-05T21:29:12.564Z,0.80
2022-08-05T21:31:43.669Z,1.15
2022-08-05T21:34:11.364Z,1.00
2022-08-05T21:36:39.239Z,1.05
2022-08-05T21:39:10.151Z,1.20
2022-08-05T21:41:41.703Z,1.52
2022-08-05T21:44:19.329Z,1.52
2022-08-05T21:46:54.030Z,1.77
2022-08-05T21:49:48.364Z,1.35
2022-08-05T21:52:22.458Z,1.90
2022-08-05T21:54:57.084Z,1.90
2022-08-05T21:57:32.534Z,2.30
2022-08-05T22:00:05.969Z,2.22
2022-08-05T22:02:42.878Z,2.00
2022-08-05T22:05:11.571Z,1.77
2022-08-05T22:07:54.274Z,1.98
2022-08-05T22:14:18.277Z,2.90
2022-08-05T22:16:39.623Z,2.38
2022-08-05T22:19:03.097Z,2.42
2022-08-05T22:21:42.167Z,2.65
2022-08-05T22:24:39.729Z,2.25
2022-08-05T22:28:09.781Z,2.42
2022-08-05T22:30:15.121Z,1.90
2022-08-05T22:32:44.226Z,1.73
2022-08-05T22:35:13.347Z,1.50
2022-08-05T22:37:58.984Z,1.42
2022-08-05T22:40:26.817Z,1.65
2022-08-05T22:42:58.139Z,1.30
2022-08-05T22:45:26.510Z,2.47
2022-08-05T22:47:57.250Z,1.92
2022-08-05T22:50:27.702Z,1.60
2022-08-05T22:52:55.107Z,1.73
2022-08-05T22:55:23.661Z,2.42
2022-08-05T22:57:51.828Z,1.77
2022-08-05T23:00:21.515Z,2.50
2022-08-05T23:02:49.830Z,3.17
2022-08-05T23:05:17.616Z,3.45
2022-08-05T23:07:49.581Z,4.30
2022-08-05T23:10:20.059Z,5.32
2022-08-05T23:12:51.286Z,4.88
2022-08-05T23:15:22.671Z,4.30
2022-08-05T23:18:01.819Z,4.68
2022-08-05T23:20:31.477Z,4.30
2022-08-05T23:22:59.298Z,3.90
2022-08-05T23:25:50.923Z,6.18
2022-08-05T23:28:15.876Z,4.72
2022-08-05T23:30:53.583Z,5.18
2022-08-05T23:33:39.314Z,6.00
2022-08-05T23:36:10.557Z,6.30
2022-08-05T23:38:38.180Z,5.25
2022-08-05T23:41:05.149Z,6.25
2022-08-05T23:43:37.323Z,6.82
2022-08-05T23:46:21.982Z,6.13
2022-08-05T23:49:01.076Z,6.78
2022-08-05T23:51:57.088Z,8.63
2022-08-05T23:54:29.971Z,5.38
2022-08-05T23:57:03.728Z,7.43
